sensor_id;sensor_type;location;lat;lon;timestamp;pressure;altitude;pressure_sealevel;temperature;humidity
10462;BME280;5278;42.656;23.374;2023-01-30T00:01:22;94911.56;;;1.43;89.66
10462;BME280;5278;42.656;23.374;2023-01-30T00:03:51;94900.88;;;1.49;89.33
10462;BME280;5278;42.656;23.374;2023-01-30T00:06:18;94889.09;;;1.46;88.92
10462;BME280;5278;42.656;23.374;2023-01-30T00:08:45;94896.00;;;1.57;87.29
10462;BME280;5278;42.656;23.374;2023-01-30T00:11:14;94894.59;;;1.53;87.95
10462;BME280;5278;42.656;23.374;2023-01-30T00:13:42;94898.44;;;1.58;87.89
10462;BME280;5278;42.656;23.374;2023-01-30T00:16:09;94894.50;;;1.54;87.33
10462;BME280;5278;42.656;23.374;2023-01-30T00:18:37;94893.81;;;1.63;91.69
10462;BME280;5278;42.656;23.374;2023-01-30T00:21:07;94871.41;;;4.41;100.00
10462;BME280;5278;42.656;23.374;2023-01-30T00:23:35;94875.63;;;5.96;100.00
10462;BME280;5278;42.656;23.374;2023-01-30T00:26:03;94866.41;;;7.38;84.67
10462;BME280;5278;42.656;23.374;2023-01-30T00:28:31;94864.25;;;8.62;70.10
10462;BME280;5278;42.656;23.374;2023-01-30T00:30:57;94865.25;;;8.61;56.00
10462;BME280;5278;42.656;23.374;2023-01-30T00:33:25;94871.75;;;7.37;57.41
10462;BME280;5278;42.656;23.374;2023-01-30T00:35:53;94873.84;;;6.06;61.87
10462;BME280;5278;42.656;23.374;2023-01-30T00:38:23;94879.38;;;5.16;66.08
10462;BME280;5278;42.656;23.374;2023-01-30T00:40:50;94877.06;;;4.35;71.42
10462;BME280;5278;42.656;23.374;2023-01-30T00:43:19;94879.72;;;3.63;75.34
10462;BME280;5278;42.656;23.374;2023-01-30T00:46:09;94873.19;;;2.86;79.76
10462;BME280;5278;42.656;23.374;2023-01-30T00:49:04;94848.94;;;2.36;82.34
10462;BME280;5278;42.656;23.374;2023-01-30T00:51:31;94875.41;;;2.25;83.76
10462;BME280;5278;42.656;23.374;2023-01-30T00:53:59;94870.53;;;2.00;85.37
10462;BME280;5278;42.656;23.374;2023-01-30T00:56:26;94878.91;;;1.68;87.13
10462;BME280;5278;42.656;23.374;2023-01-30T00:58:53;94877.97;;;1.58;87.88
10462;BME280;5278;42.656;23.374;2023-01-30T01:01:20;94875.81;;;1.41;89.75
10462;BME280;5278;42.656;23.374;2023-01-30T01:03:49;94873.16;;;1.43;89.90
10462;BME280;5278;42.656;23.374;2023-01-30T01:06:16;94872.88;;;1.23;90.49
10462;BME280;5278;42.656;23.374;2023-01-30T01:08:44;94876.91;;;1.15;91.31
10462;BME280;5278;42.656;23.374;2023-01-30T01:11:13;94876.72;;;1.18;91.81
10462;BME280;5278;42.656;23.374;2023-01-30T01:13:49;94874.34;;;1.15;91.35
10462;BME280;5278;42.656;23.374;2023-01-30T01:16:18;94876.06;;;1.03;92.07
10462;BME280;5278;42.656;23.374;2023-01-30T01:18:45;94872.13;;;1.10;92.45
10462;BME280;5278;42.656;23.374;2023-01-30T01:21:12;94872.59;;;1.04;91.77
10462;BME280;5278;42.656;23.374;2023-01-30T01:23:39;94867.78;;;1.00;92.67
10462;BME280;5278;42.656;23.374;2023-01-30T01:26:06;94858.38;;;0.89;92.66
10462;BME280;5278;42.656;23.374;2023-01-30T01:28:35;94862.09;;;0.96;93.33
10462;BME280;5278;42.656;23.374;2023-01-30T01:31:07;94861.59;;;0.91;92.84
10462;BME280;5278;42.656;23.374;2023-01-30T01:33:34;94857.84;;;1.08;93.21
10462;BME280;5278;42.656;23.374;2023-01-30T01:36:03;94858.56;;;1.21;92.30
10462;BME280;5278;42.656;23.374;2023-01-30T01:38:31;94854.22;;;1.10;91.25
10462;BME280;5278;42.656;23.374;2023-01-30T01:40:57;94856.63;;;1.01;92.56
10462;BME280;5278;42.656;23.374;2023-01-30T01:43:28;94858.53;;;1.10;92.20
10462;BME280;5278;42.656;23.374;2023-01-30T01:46:01;94855.19;;;1.20;91.77
10462;BME280;5278;42.656;23.374;2023-01-30T01:48:31;94867.16;;;1.20;91.50
10462;BME280;5278;42.656;23.374;2023-01-30T01:51:02;94750.84;;;0.45;91.46
10462;BME280;5278;42.656;23.374;2023-01-30T01:53:31;94866.69;;;1.15;90.92
10462;BME280;5278;42.656;23.374;2023-01-30T01:56:01;94867.84;;;1.11;92.05
10462;BME280;5278;42.656;23.374;2023-01-30T01:58:34;94835.34;;;0.89;91.65
10462;BME280;5278;42.656;23.374;2023-01-30T02:01:05;94865.63;;;1.06;91.83
10462;BME280;5278;42.656;23.374;2023-01-30T02:03:36;94808.53;;;0.71;91.94
10462;BME280;5278;42.656;23.374;2023-01-30T02:06:06;94866.88;;;1.01;92.21
10462;BME280;5278;42.656;23.374;2023-01-30T02:08:36;94861.75;;;1.01;92.27
10462;BME280;5278;42.656;23.374;2023-01-30T02:11:08;94862.22;;;0.95;92.15
10462;BME280;5278;42.656;23.374;2023-01-30T02:13:36;94862.09;;;0.96;92.68
10462;BME280;5278;42.656;23.374;2023-01-30T02:16:07;94871.97;;;0.90;92.45
10462;BME280;5278;42.656;23.374;2023-01-30T02:18:36;94869.41;;;0.90;92.43
10462;BME280;5278;42.656;23.374;2023-01-30T02:24:15;94858.38;;;0.89;92.61
10462;BME280;5278;42.656;23.374;2023-01-30T02:27:13;94869.66;;;0.98;91.60
10462;BME280;5278;42.656;23.374;2023-01-30T02:33:04;94859.19;;;1.01;91.69
10462;BME280;5278;42.656;23.374;2023-01-30T02:35:41;94863.41;;;1.02;91.66
10462;BME280;5278;42.656;23.374;2023-01-30T02:38:25;94857.84;;;1.08;91.76
10462;BME280;5278;42.656;23.374;2023-01-30T02:41:04;94854.38;;;1.09;91.33
10462;BME280;5278;42.656;23.374;2023-01-30T02:43:39;94842.97;;;1.13;90.83
10462;BME280;5278;42.656;23.374;2023-01-30T02:46:12;94851.22;;;1.16;90.50
10462;BME280;5278;42.656;23.374;2023-01-30T02:48:45;94844.03;;;1.21;90.05
10462;BME280;5278;42.656;23.374;2023-01-30T02:51:18;94847.66;;;1.30;89.76
10462;BME280;5278;42.656;23.374;2023-01-30T02:53:46;94839.50;;;1.25;89.77
10462;BME280;5278;42.656;23.374;2023-01-30T02:56:15;94850.94;;;1.32;89.64
10462;BME280;5278;42.656;23.374;2023-01-30T02:58:46;94849.88;;;1.35;89.19
10462;BME280;5278;42.656;23.374;2023-01-30T03:01:37;94846.72;;;1.31;87.74
10462;BME280;5278;42.656;23.374;2023-01-30T03:04:19;94813.66;;;1.06;88.12
10462;BME280;5278;42.656;23.374;2023-01-30T03:07:12;94853.81;;;1.27;88.18
10462;BME280;5278;42.656;23.374;2023-01-30T03:09:47;94848.13;;;1.24;88.11
10462;BME280;5278;42.656;23.374;2023-01-30T03:12:21;94850.34;;;1.28;88.17
10462;BME280;5278;42.656;23.374;2023-01-30T03:14:58;94841.63;;;1.31;87.51
10462;BME280;5278;42.656;23.374;2023-01-30T03:17:26;94834.75;;;1.32;88.01
10462;BME280;5278;42.656;23.374;2023-01-30T03:19:56;94778.53;;;0.97;87.73
10462;BME280;5278;42.656;23.374;2023-01-30T03:22:24;94837.41;;;1.30;87.94
10462;BME280;5278;42.656;23.374;2023-01-30T03:24:52;94818.38;;;1.34;87.42
10462;BME280;5278;42.656;23.374;2023-01-30T03:27:20;94820.72;;;1.48;86.33
10462;BME280;5278;42.656;23.374;2023-01-30T03:29:48;94809.41;;;1.51;86.29
10462;BME280;5278;42.656;23.374;2023-01-30T03:32:15;94748.09;;;1.16;86.54
10462;BME280;5278;42.656;23.374;2023-01-30T03:34:42;94815.16;;;1.54;85.80
10462;BME280;5278;42.656;23.374;2023-01-30T03:37:10;94811.16;;;1.50;86.72
10462;BME280;5278;42.656;23.374;2023-01-30T03:39:37;94802.34;;;1.54;86.01
10462;BME280;5278;42.656;23.374;2023-01-30T03:42:05;94806.75;;;1.52;85.25
10462;BME280;5278;42.656;23.374;2023-01-30T03:44:32;94801.41;;;1.44;86.02
10462;BME280;5278;42.656;23.374;2023-01-30T03:46:59;94804.41;;;1.38;85.63
10462;BME280;5278;42.656;23.374;2023-01-30T03:49:26;94810.19;;;1.18;86.93
10462;BME280;5278;42.656;23.374;2023-01-30T03:51:53;94807.63;;;1.18;86.71
10462;BME280;5278;42.656;23.374;2023-01-30T03:54:21;94808.31;;;1.20;86.63
10462;BME280;5278;42.656;23.374;2023-01-30T03:56:48;94808.19;;;1.10;88.32
10462;BME280;5278;42.656;23.374;2023-01-30T03:59:15;94794.25;;;1.03;88.58
10462;BME280;5278;42.656;23.374;2023-01-30T04:01:42;94795.97;;;1.03;88.60
10462;BME280;5278;42.656;23.374;2023-01-30T04:04:09;94796.91;;;1.02;89.06
10462;BME280;5278;42.656;23.374;2023-01-30T04:06:35;94803.22;;;1.09;88.82
10462;BME280;5278;42.656;23.374;2023-01-30T04:09:02;94801.72;;;1.17;88.94
10462;BME280;5278;42.656;23.374;2023-01-30T04:11:31;94797.78;;;1.24;88.19
10462;BME280;5278;42.656;23.374;2023-01-30T04:13:58;94799.03;;;1.19;89.07
10462;BME280;5278;42.656;23.374;2023-01-30T04:16:25;94796.50;;;1.19;89.05
10462;BME280;5278;42.656;23.374;2023-01-30T04:18:52;94800.66;;;1.20;88.11
10462;BME280;5278;42.656;23.374;2023-01-30T04:21:19;94796.84;;;1.14;88.23
10462;BME280;5278;42.656;23.374;2023-01-30T04:23:46;94800.84;;;1.06;88.91
10462;BME280;5278;42.656;23.374;2023-01-30T04:26:13;94787.84;;;0.98;89.25
10462;BME280;5278;42.656;23.374;2023-01-30T04:28:42;94797.38;;;1.07;89.25
10462;BME280;5278;42.656;23.374;2023-01-30T04:31:09;94791.81;;;1.13;89.23
10462;BME280;5278;42.656;23.374;2023-01-30T04:33:36;94797.50;;;1.16;88.49
10462;BME280;5278;42.656;23.374;2023-01-30T04:36:05;94795.53;;;1.20;88.91
10462;BME280;5278;42.656;23.374;2023-01-30T04:38:34;94792.97;;;1.09;88.83
10462;BME280;5278;42.656;23.374;2023-01-30T04:41:02;94748.50;;;0.76;88.42
10462;BME280;5278;42.656;23.374;2023-01-30T04:43:30;94782.47;;;1.01;89.78
10462;BME280;5278;42.656;23.374;2023-01-30T04:45:58;94794.94;;;1.05;89.13
10462;BME280;5278;42.656;23.374;2023-01-30T04:48:25;94785.31;;;1.09;89.69
10462;BME280;5278;42.656;23.374;2023-01-30T04:50:53;94777.03;;;1.05;89.82
10462;BME280;5278;42.656;23.374;2023-01-30T04:53:21;94783.81;;;1.17;89.97
10462;BME280;5278;42.656;23.374;2023-01-30T04:55:48;94771.13;;;1.16;90.31
10462;BME280;5278;42.656;23.374;2023-01-30T04:58:16;94781.13;;;1.19;88.95
10462;BME280;5278;42.656;23.374;2023-01-30T05:00:45;94772.28;;;1.12;89.21
10462;BME280;5278;42.656;23.374;2023-01-30T05:03:14;94772.72;;;1.06;90.67
10462;BME280;5278;42.656;23.374;2023-01-30T05:05:41;94771.09;;;1.05;90.00
10462;BME280;5278;42.656;23.374;2023-01-30T05:08:08;94779.25;;;1.10;90.21
10462;BME280;5278;42.656;23.374;2023-01-30T05:10:37;94775.41;;;1.04;89.94
10462;BME280;5278;42.656;23.374;2023-01-30T05:13:04;94769.94;;;0.98;90.88
10462;BME280;5278;42.656;23.374;2023-01-30T05:15:32;94779.66;;;0.81;91.74
10462;BME280;5278;42.656;23.374;2023-01-30T05:17:59;94778.72;;;0.82;92.15
10462;BME280;5278;42.656;23.374;2023-01-30T05:20:28;94781.53;;;0.79;92.43
10462;BME280;5278;42.656;23.374;2023-01-30T05:22:55;94778.34;;;0.76;91.89
10462;BME280;5278;42.656;23.374;2023-01-30T05:25:22;94783.84;;;0.82;93.16
10462;BME280;5278;42.656;23.374;2023-01-30T05:27:48;94785.00;;;0.78;92.42
10462;BME280;5278;42.656;23.374;2023-01-30T05:30:16;94784.56;;;0.84;92.25
10462;BME280;5278;42.656;23.374;2023-01-30T05:32:42;94791.88;;;0.89;92.61
10462;BME280;5278;42.656;23.374;2023-01-30T05:35:09;94786.41;;;0.82;92.17
10462;BME280;5278;42.656;23.374;2023-01-30T05:37:38;94781.72;;;0.76;93.40
10462;BME280;5278;42.656;23.374;2023-01-30T05:40:06;94773.84;;;0.79;93.85
10462;BME280;5278;42.656;23.374;2023-01-30T05:42:33;94789.09;;;0.92;93.79
10462;BME280;5278;42.656;23.374;2023-01-30T05:45:00;94785.38;;;0.96;93.43
10462;BME280;5278;42.656;23.374;2023-01-30T05:47:27;94785.03;;;1.01;93.06
10462;BME280;5278;42.656;23.374;2023-01-30T05:49:53;94786.31;;;0.95;92.94
10462;BME280;5278;42.656;23.374;2023-01-30T05:52:21;94793.84;;;0.85;93.29
10462;BME280;5278;42.656;23.374;2023-01-30T05:54:49;94792.91;;;0.86;93.84
10462;BME280;5278;42.656;23.374;2023-01-30T05:57:16;94792.47;;;0.93;94.59
10462;BME280;5278;42.656;23.374;2023-01-30T05:59:43;94802.47;;;0.96;94.67
10462;BME280;5278;42.656;23.374;2023-01-30T06:02:10;94799.31;;;0.92;93.72
10462;BME280;5278;42.656;23.374;2023-01-30T06:04:37;94796.66;;;0.94;94.00
10462;BME280;5278;42.656;23.374;2023-01-30T06:07:04;94803.41;;;0.95;94.60
10462;BME280;5278;42.656;23.374;2023-01-30T06:09:32;94803.28;;;0.96;94.19
10462;BME280;5278;42.656;23.374;2023-01-30T06:12:01;94794.94;;;0.94;93.05
10462;BME280;5278;42.656;23.374;2023-01-30T06:14:28;94796.38;;;0.85;94.37
10462;BME280;5278;42.656;23.374;2023-01-30T06:16:55;94797.06;;;0.76;94.40
10462;BME280;5278;42.656;23.374;2023-01-30T06:19:21;94789.28;;;0.78;95.67
10462;BME280;5278;42.656;23.374;2023-01-30T06:21:49;94786.63;;;0.79;96.21
10462;BME280;5278;42.656;23.374;2023-01-30T06:24:16;94789.44;;;0.88;95.13
10462;BME280;5278;42.656;23.374;2023-01-30T06:26:43;94784.91;;;0.91;95.32
10462;BME280;5278;42.656;23.374;2023-01-30T06:29:12;94792.03;;;0.99;94.90
10462;BME280;5278;42.656;23.374;2023-01-30T06:31:39;94796.44;;;0.97;95.08
10462;BME280;5278;42.656;23.374;2023-01-30T06:34:06;94792.72;;;1.01;95.29
10462;BME280;5278;42.656;23.374;2023-01-30T06:36:33;94787.34;;;0.93;95.58
10462;BME280;5278;42.656;23.374;2023-01-30T06:39:00;94786.31;;;0.95;95.27
10462;BME280;5278;42.656;23.374;2023-01-30T06:41:27;94788.53;;;1.00;94.83
10462;BME280;5278;42.656;23.374;2023-01-30T06:43:54;94791.31;;;0.97;94.27
10462;BME280;5278;42.656;23.374;2023-01-30T06:46:22;94790.63;;;0.95;94.78
10462;BME280;5278;42.656;23.374;2023-01-30T06:48:49;94782.34;;;0.91;94.30
10462;BME280;5278;42.656;23.374;2023-01-30T06:51:16;94790.63;;;0.95;94.08
10462;BME280;5278;42.656;23.374;2023-01-30T06:53:43;94790.47;;;0.85;94.37
10462;BME280;5278;42.656;23.374;2023-01-30T06:56:10;94798.75;;;0.89;95.09
10462;BME280;5278;42.656;23.374;2023-01-30T06:58:37;94794.31;;;0.91;95.35
10462;BME280;5278;42.656;23.374;2023-01-30T07:01:04;94797.22;;;0.86;94.86
10462;BME280;5278;42.656;23.374;2023-01-30T07:03:33;94804.09;;;0.97;95.45
10462;BME280;5278;42.656;23.374;2023-01-30T07:06:00;94805.72;;;0.98;94.06
10462;BME280;5278;42.656;23.374;2023-01-30T07:08:26;94797.88;;;0.77;94.10
10462;BME280;5278;42.656;23.374;2023-01-30T07:10:53;94810.75;;;0.75;95.21
10462;BME280;5278;42.656;23.374;2023-01-30T07:13:20;94805.44;;;0.78;95.01
10462;BME280;5278;42.656;23.374;2023-01-30T07:15:47;94806.91;;;0.70;94.59
10462;BME280;5278;42.656;23.374;2023-01-30T07:18:15;94806.81;;;0.71;96.25
10462;BME280;5278;42.656;23.374;2023-01-30T07:20:46;94804.06;;;0.85;95.92
10462;BME280;5278;42.656;23.374;2023-01-30T07:23:13;94796.25;;;0.76;95.25
10462;BME280;5278;42.656;23.374;2023-01-30T07:25:40;94811.28;;;0.92;96.15
10462;BME280;5278;42.656;23.374;2023-01-30T07:28:08;94813.88;;;1.03;94.83
10462;BME280;5278;42.656;23.374;2023-01-30T07:30:35;94814.00;;;1.01;94.76
10462;BME280;5278;42.656;23.374;2023-01-30T07:33:03;94818.41;;;1.10;94.44
10462;BME280;5278;42.656;23.374;2023-01-30T07:35:33;94821.59;;;1.14;93.50
10462;BME280;5278;42.656;23.374;2023-01-30T07:38:02;94823.91;;;1.17;94.20
10462;BME280;5278;42.656;23.374;2023-01-30T07:40:29;94834.81;;;1.08;93.47
10462;BME280;5278;42.656;23.374;2023-01-30T07:42:57;94828.88;;;1.07;93.85
10462;BME280;5278;42.656;23.374;2023-01-30T07:45:27;94794.09;;;0.94;93.51
10462;BME280;5278;42.656;23.374;2023-01-30T07:47:55;94828.78;;;1.20;93.22
10462;BME280;5278;42.656;23.374;2023-01-30T07:50:22;94818.81;;;1.28;92.74
10462;BME280;5278;42.656;23.374;2023-01-30T07:52:49;94823.69;;;1.31;93.19
10462;BME280;5278;42.656;23.374;2023-01-30T07:55:17;94823.84;;;1.41;91.63
10462;BME280;5278;42.656;23.374;2023-01-30T07:57:44;94807.22;;;1.46;91.99
10462;BME280;5278;42.656;23.374;2023-01-30T08:00:13;94805.69;;;1.55;91.74
10462;BME280;5278;42.656;23.374;2023-01-30T08:02:41;94803.50;;;1.61;90.42
10462;BME280;5278;42.656;23.374;2023-01-30T08:05:08;94791.06;;;1.68;89.70
10462;BME280;5278;42.656;23.374;2023-01-30T08:07:36;94790.00;;;1.82;88.94
10462;BME280;5278;42.656;23.374;2023-01-30T08:10:04;94792.56;;;1.82;89.44
10462;BME280;5278;42.656;23.374;2023-01-30T08:12:33;94783.47;;;1.78;89.72
10462;BME280;5278;42.656;23.374;2023-01-30T08:14:59;94781.22;;;2.49;100.00
10462;BME280;5278;42.656;23.374;2023-01-30T08:17:26;94765.28;;;5.99;100.00
10462;BME280;5278;42.656;23.374;2023-01-30T08:19:53;94757.28;;;6.65;100.00
10462;BME280;5278;42.656;23.374;2023-01-30T08:22:20;94761.44;;;7.97;74.76
10462;BME280;5278;42.656;23.374;2023-01-30T08:24:47;94761.13;;;8.00;62.42
10462;BME280;5278;42.656;23.374;2023-01-30T08:27:14;94758.00;;;7.11;62.00
10462;BME280;5278;42.656;23.374;2023-01-30T08:29:43;94763.25;;;6.48;63.22
10462;BME280;5278;42.656;23.374;2023-01-30T08:32:10;94779.03;;;5.90;65.75
10462;BME280;5278;42.656;23.374;2023-01-30T08:34:37;94761.03;;;5.34;68.42
10462;BME280;5278;42.656;23.374;2023-01-30T08:37:07;94765.31;;;4.97;70.22
10462;BME280;5278;42.656;23.374;2023-01-30T08:39:34;94761.38;;;4.64;71.22
10462;BME280;5278;42.656;23.374;2023-01-30T08:42:00;94762.28;;;4.34;72.74
10462;BME280;5278;42.656;23.374;2023-01-30T08:44:27;94715.09;;;3.76;74.88
10462;BME280;5278;42.656;23.374;2023-01-30T08:46:56;94754.88;;;3.81;75.64
10462;BME280;5278;42.656;23.374;2023-01-30T08:49:22;94756.28;;;3.65;76.73
10462;BME280;5278;42.656;23.374;2023-01-30T08:51:49;94749.84;;;3.40;77.63
10462;BME280;5278;42.656;23.374;2023-01-30T08:54:16;94749.91;;;3.29;77.88
10462;BME280;5278;42.656;23.374;2023-01-30T08:56:43;94748.25;;;2.97;77.63
10462;BME280;5278;42.656;23.374;2023-01-30T08:59:10;94751.63;;;2.77;78.97
10462;BME280;5278;42.656;23.374;2023-01-30T09:01:37;94752.06;;;2.62;78.94
10462;BME280;5278;42.656;23.374;2023-01-30T09:04:06;94745.00;;;2.54;79.90
10462;BME280;5278;42.656;23.374;2023-01-30T09:06:32;94738.78;;;2.56;80.45
10462;BME280;5278;42.656;23.374;2023-01-30T09:09:00;94732.97;;;2.54;79.20
10462;BME280;5278;42.656;23.374;2023-01-30T09:11:27;94740.88;;;2.63;79.18
10462;BME280;5278;42.656;23.374;2023-01-30T09:13:53;94731.44;;;2.63;78.51
10462;BME280;5278;42.656;23.374;2023-01-30T09:16:20;94739.41;;;2.70;78.72
10462;BME280;5278;42.656;23.374;2023-01-30T09:18:47;94738.03;;;2.66;77.68
10462;BME280;5278;42.656;23.374;2023-01-30T09:21:16;94738.84;;;2.34;78.55
10462;BME280;5278;42.656;23.374;2023-01-30T09:23:43;94730.06;;;2.27;79.51
10462;BME280;5278;42.656;23.374;2023-01-30T09:26:09;94731.59;;;2.19;81.70
10462;BME280;5278;42.656;23.374;2023-01-30T09:28:37;94723.56;;;2.12;82.43
10462;BME280;5278;42.656;23.374;2023-01-30T09:31:04;94738.84;;;2.02;83.18
10462;BME280;5278;42.656;23.374;2023-01-30T09:33:31;94728.16;;;1.97;84.38
10462;BME280;5278;42.656;23.374;2023-01-30T09:35:58;94737.59;;;1.97;84.03
10462;BME280;5278;42.656;23.374;2023-01-30T09:38:27;94726.88;;;1.92;84.85
10462;BME280;5278;42.656;23.374;2023-01-30T09:41:12;94719.22;;;1.92;84.45
10462;BME280;5278;42.656;23.374;2023-01-30T09:44:01;94722.84;;;1.89;84.64
10462;BME280;5278;42.656;23.374;2023-01-30T09:46:39;94725.41;;;1.89;84.87
10462;BME280;5278;42.656;23.374;2023-01-30T09:49:22;94714.34;;;1.78;84.48
10462;BME280;5278;42.656;23.374;2023-01-30T09:52:01;94616.97;;;1.14;85.21
10462;BME280;5278;42.656;23.374;2023-01-30T09:54:38;94707.81;;;1.85;85.73
10462;BME280;5278;42.656;23.374;2023-01-30T09:57:19;94701.84;;;1.95;85.45
10462;BME280;5278;42.656;23.374;2023-01-30T09:59:53;94710.31;;;2.07;85.07
10462;BME280;5278;42.656;23.374;2023-01-30T10:02:35;94696.50;;;1.98;85.65
10462;BME280;5278;42.656;23.374;2023-01-30T10:05:05;94708.97;;;1.92;84.58
10462;BME280;5278;42.656;23.374;2023-01-30T10:07:42;94690.13;;;1.82;85.23
10462;BME280;5278;42.656;23.374;2023-01-30T10:10:19;94692.13;;;1.78;86.03
10462;BME280;5278;42.656;23.374;2023-01-30T10:12:56;94688.38;;;1.82;86.05
10462;BME280;5278;42.656;23.374;2023-01-30T10:15:35;94673.59;;;1.86;85.29
10462;BME280;5278;42.656;23.374;2023-01-30T10:18:27;94672.47;;;1.79;86.46
10462;BME280;5278;42.656;23.374;2023-01-30T10:21:22;94665.72;;;1.66;86.59
10462;BME280;5278;42.656;23.374;2023-01-30T10:24:03;94657.03;;;1.58;86.70
10462;BME280;5278;42.656;23.374;2023-01-30T10:26:38;94661.56;;;1.54;87.27
10462;BME280;5278;42.656;23.374;2023-01-30T10:29:11;94651.91;;;1.47;87.39
10462;BME280;5278;42.656;23.374;2023-01-30T10:31:44;94639.69;;;1.50;87.17
10462;BME280;5278;42.656;23.374;2023-01-30T10:34:15;94646.09;;;1.56;87.73
10462;BME280;5278;42.656;23.374;2023-01-30T10:36:51;94644.22;;;1.58;87.13
10462;BME280;5278;42.656;23.374;2023-01-30T10:39:25;94640.59;;;1.60;85.72
10462;BME280;5278;42.656;23.374;2023-01-30T10:42:00;94634.91;;;1.57;85.33
10462;BME280;5278;42.656;23.374;2023-01-30T10:44:31;94632.47;;;1.55;85.35
10462;BME280;5278;42.656;23.374;2023-01-30T10:47:25;94618.84;;;1.66;84.43
10462;BME280;5278;42.656;23.374;2023-01-30T10:49:59;94613.56;;;1.79;84.51
10462;BME280;5278;42.656;23.374;2023-01-30T10:52:36;94606.56;;;1.81;84.64
10462;BME280;5278;42.656;23.374;2023-01-30T10:55:12;94603.06;;;1.82;84.50
10462;BME280;5278;42.656;23.374;2023-01-30T10:57:49;94593.22;;;1.98;82.92
10462;BME280;5278;42.656;23.374;2023-01-30T11:00:27;94588.34;;;1.95;81.88
10462;BME280;5278;42.656;23.374;2023-01-30T11:03:07;94576.56;;;2.03;82.97
10462;BME280;5278;42.656;23.374;2023-01-30T11:05:41;94564.75;;;2.12;81.87
10462;BME280;5278;42.656;23.374;2023-01-30T11:08:18;94569.66;;;2.25;82.06
10462;BME280;5278;42.656;23.374;2023-01-30T11:10:46;94562.31;;;2.31;80.70
10462;BME280;5278;42.656;23.374;2023-01-30T11:13:17;94555.75;;;2.38;80.00
10462;BME280;5278;42.656;23.374;2023-01-30T11:15:47;94549.81;;;2.38;79.77
10462;BME280;5278;42.656;23.374;2023-01-30T11:18:16;94550.44;;;2.60;79.32
10462;BME280;5278;42.656;23.374;2023-01-30T11:23:33;94535.56;;;2.94;77.78
10462;BME280;5278;42.656;23.374;2023-01-30T11:26:02;94528.50;;;3.17;76.53
10462;BME280;5278;42.656;23.374;2023-01-30T11:28:38;94529.31;;;3.18;75.46
10462;BME280;5278;42.656;23.374;2023-01-30T11:31:16;94502.94;;;3.06;75.49
10462;BME280;5278;42.656;23.374;2023-01-30T11:33:43;94522.06;;;2.83;75.35
10462;BME280;5278;42.656;23.374;2023-01-30T11:36:23;94514.19;;;2.75;76.92
10462;BME280;5278;42.656;23.374;2023-01-30T11:38:56;94516.34;;;2.79;77.01
10462;BME280;5278;42.656;23.374;2023-01-30T11:41:23;94498.41;;;2.79;76.92
10462;BME280;5278;42.656;23.374;2023-01-30T11:43:58;94485.53;;;2.60;77.20
10462;BME280;5278;42.656;23.374;2023-01-30T11:46:29;94500.25;;;2.58;76.88
10462;BME280;5278;42.656;23.374;2023-01-30T11:49:00;94479.28;;;2.43;77.40
10462;BME280;5278;42.656;23.374;2023-01-30T11:51:28;94489.09;;;2.38;77.86
10462;BME280;5278;42.656;23.374;2023-01-30T11:53:57;94472.88;;;2.28;78.82
10462;BME280;5278;42.656;23.374;2023-01-30T11:56:32;94466.41;;;2.24;79.87
10462;BME280;5278;42.656;23.374;2023-01-30T11:59:04;94461.84;;;2.07;79.26
10462;BME280;5278;42.656;23.374;2023-01-30T12:01:34;94414.06;;;1.66;80.71
10462;BME280;5278;42.656;23.374;2023-01-30T12:04:07;94458.97;;;2.00;81.18
10462;BME280;5278;42.656;23.374;2023-01-30T12:06:36;94449.22;;;2.15;81.22
10462;BME280;5278;42.656;23.374;2023-01-30T12:09:04;94449.84;;;2.38;81.18
10462;BME280;5278;42.656;23.374;2023-01-30T12:11:41;94444.66;;;2.58;79.88
10462;BME280;5278;42.656;23.374;2023-01-30T12:14:28;94425.41;;;2.74;78.13
10462;BME280;5278;42.656;23.374;2023-01-30T12:17:04;94425.94;;;2.68;77.87
10462;BME280;5278;42.656;23.374;2023-01-30T12:19:45;94421.31;;;2.62;77.41
10462;BME280;5278;42.656;23.374;2023-01-30T12:22:21;94424.19;;;2.78;77.13
10462;BME280;5278;42.656;23.374;2023-01-30T12:24:57;94428.09;;;2.82;77.06
10462;BME280;5278;42.656;23.374;2023-01-30T12:27:28;94421.47;;;2.70;77.20
10462;BME280;5278;42.656;23.374;2023-01-30T12:30:04;94417.41;;;2.57;77.34
10462;BME280;5278;42.656;23.374;2023-01-30T12:32:34;94409.28;;;2.52;77.58
10462;BME280;5278;42.656;23.374;2023-01-30T12:35:13;94406.31;;;2.47;76.96
10462;BME280;5278;42.656;23.374;2023-01-30T12:37:51;94398.31;;;2.41;77.58
10462;BME280;5278;42.656;23.374;2023-01-30T12:40:32;94393.06;;;2.42;77.43
10462;BME280;5278;42.656;23.374;2023-01-30T12:43:20;94399.00;;;2.33;77.66
10462;BME280;5278;42.656;23.374;2023-01-30T12:46:01;94403.13;;;2.25;77.01
10462;BME280;5278;42.656;23.374;2023-01-30T12:48:44;94394.38;;;2.27;77.57
10462;BME280;5278;42.656;23.374;2023-01-30T12:51:24;94343.59;;;2.02;76.63
10462;BME280;5278;42.656;23.374;2023-01-30T12:54:00;94376.06;;;2.32;76.91
10462;BME280;5278;42.656;23.374;2023-01-30T12:56:43;94376.75;;;2.34;76.40
10462;BME280;5278;42.656;23.374;2023-01-30T12:59:16;94365.00;;;2.31;76.93
10462;BME280;5278;42.656;23.374;2023-01-30T13:01:55;94370.94;;;2.41;76.94
10462;BME280;5278;42.656;23.374;2023-01-30T13:04:33;94367.97;;;2.36;76.88
10462;BME280;5278;42.656;23.374;2023-01-30T13:07:12;94365.69;;;2.43;77.38
10462;BME280;5278;42.656;23.374;2023-01-30T13:09:51;94362.63;;;2.49;77.79
10462;BME280;5278;42.656;23.374;2023-01-30T13:12:23;94367.19;;;2.45;76.71
10462;BME280;5278;42.656;23.374;2023-01-30T13:14:59;94365.53;;;2.44;77.31
10462;BME280;5278;42.656;23.374;2023-01-30T13:17:47;94326.13;;;2.26;76.50
10462;BME280;5278;42.656;23.374;2023-01-30T13:20:30;94362.75;;;2.57;76.16
10462;BME280;5278;42.656;23.374;2023-01-30T13:23:05;94272.84;;;2.01;76.94
10462;BME280;5278;42.656;23.374;2023-01-30T13:25:41;94350.97;;;2.45;77.33
10462;BME280;5278;42.656;23.374;2023-01-30T13:28:12;94351.56;;;2.48;77.13
10462;BME280;5278;42.656;23.374;2023-01-30T13:30:40;94349.66;;;2.50;77.15
10462;BME280;5278;42.656;23.374;2023-01-30T13:33:12;94347.78;;;2.62;77.17
10462;BME280;5278;42.656;23.374;2023-01-30T13:35:45;94338.34;;;2.72;77.34
10462;BME280;5278;42.656;23.374;2023-01-30T13:38:19;94338.47;;;2.90;77.12